createdAt,value
2023-05-21T00:00:12.673Z,9.75
2023-05-21T00:02:40.840Z,8.00
2023-05-21T00:05:13.798Z,8.20
2023-05-21T00:07:44.483Z,9.70
2023-05-21T00:10:12.683Z,9.70
2023-05-21T00:12:41.625Z,9.35
2023-05-21T00:15:12.082Z,10.43
2023-05-21T00:17:40.023Z,9.63
2023-05-21T00:20:10.040Z,12.80
2023-05-21T00:22:37.916Z,11.05
2023-05-21T00:25:06.440Z,11.20
2023-05-21T00:27:34.332Z,11.52
2023-05-21T00:30:02.553Z,10.52
2023-05-21T00:32:31.788Z,12.75
2023-05-21T00:34:59.542Z,8.77
2023-05-21T00:37:29.764Z,11.35
2023-05-21T00:39:58.364Z,11.90
2023-05-21T00:42:27.319Z,11.35
2023-05-21T00:44:58.512Z,11.60
2023-05-21T00:47:29.617Z,11.38
2023-05-21T00:49:59.222Z,11.23
2023-05-21T00:52:27.562Z,10.38
2023-05-21T00:54:56.121Z,11.32
2023-05-21T00:57:27.126Z,10.60
2023-05-21T00:59:55.505Z,11.27
2023-05-21T01:02:24.177Z,10.43
2023-05-21T01:04:55.837Z,10.60
2023-05-21T01:07:25.077Z,10.95
2023-05-21T01:09:54.221Z,12.35
2023-05-21T01:12:23.819Z,10.77
2023-05-21T01:14:52.578Z,9.40
2023-05-21T01:17:24.347Z,11.05
2023-05-21T01:19:54.621Z,9.88
2023-05-21T01:22:25.174Z,11.85
2023-05-21T01:24:55.644Z,9.23
2023-05-21T01:27:23.552Z,11.77
2023-05-21T01:29:51.334Z,10.45
2023-05-21T01:32:27.955Z,10.23
2023-05-21T01:35:02.017Z,11.00
2023-05-21T01:37:35.772Z,11.43
2023-05-21T01:40:11.846Z,12.45
2023-05-21T01:42:43.726Z,12.18
2023-05-21T01:45:14.370Z,11.68
2023-05-21T01:47:43.191Z,10.52
2023-05-21T01:50:12.477Z,11.13
2023-05-21T01:52:40.352Z,11.88
2023-05-21T01:55:10.390Z,10.45
2023-05-21T01:57:38.201Z,11.23
2023-05-21T02:00:08.528Z,10.32
2023-05-21T02:02:36.479Z,12.60
2023-05-21T02:05:04.379Z,11.45
2023-05-21T02:07:33.786Z,12.00
2023-05-21T02:10:01.602Z,11.85
2023-05-21T02:12:30.827Z,16.27
2023-05-21T02:14:58.859Z,12.90
2023-05-21T02:17:26.733Z,11.90
2023-05-21T02:19:54.745Z,16.00
2023-05-21T02:22:22.563Z,12.38
2023-05-21T02:24:50.372Z,11.40
2023-05-21T02:27:18.602Z,13.13
2023-05-21T02:29:47.866Z,13.05
2023-05-21T02:32:16.906Z,12.65
2023-05-21T02:34:47.291Z,14.02
2023-05-21T02:37:15.209Z,12.95
2023-05-21T02:39:42.930Z,14.55
2023-05-21T02:42:10.684Z,13.00
2023-05-21T02:44:38.532Z,13.40
2023-05-21T02:47:10.835Z,11.70
2023-05-21T02:49:38.676Z,13.50
2023-05-21T02:52:06.777Z,11.65
2023-05-21T02:54:34.551Z,12.32
2023-05-21T02:57:02.381Z,15.18
2023-05-21T02:59:30.125Z,14.77
2023-05-21T03:01:57.928Z,12.57
2023-05-21T03:04:28.379Z,13.55
2023-05-21T03:06:56.536Z,13.25
2023-05-21T03:09:24.311Z,13.20
2023-05-21T03:11:52.300Z,15.00
2023-05-21T03:14:20.207Z,15.15
2023-05-21T03:16:51.353Z,15.65
2023-05-21T03:19:19.214Z,11.95
2023-05-21T03:21:49.008Z,14.35
2023-05-21T03:24:16.835Z,17.10
2023-05-21T03:26:44.644Z,16.60
2023-05-21T03:29:12.643Z,14.55
2023-05-21T03:31:40.535Z,15.15
2023-05-21T03:34:09.030Z,17.10
2023-05-21T03:36:36.853Z,14.35
2023-05-21T03:39:06.885Z,18.48
2023-05-21T03:41:34.662Z,19.73
2023-05-21T03:44:02.419Z,15.00
2023-05-21T03:46:30.349Z,17.30
2023-05-21T03:48:59.825Z,13.77
2023-05-21T03:51:27.756Z,16.60
2023-05-21T03:53:55.536Z,15.07
2023-05-21T03:56:24.702Z,14.32
2023-05-21T03:58:52.648Z,17.50
2023-05-21T04:01:20.666Z,13.23
2023-05-21T04:03:48.767Z,13.90
2023-05-21T04:06:17.750Z,15.98
2023-05-21T04:08:45.601Z,15.07
2023-05-21T04:11:13.398Z,13.60
2023-05-21T04:13:42.654Z,14.02
2023-05-21T04:16:10.909Z,15.45
2023-05-21T04:18:38.967Z,13.68
2023-05-21T04:21:06.844Z,14.90
2023-05-21T04:23:36.608Z,13.65
2023-05-21T04:26:04.752Z,15.77
2023-05-21T04:28:33.252Z,15.88
2023-05-21T04:31:02.571Z,13.18
2023-05-21T04:33:30.537Z,16.52
2023-05-21T04:35:58.354Z,16.38
2023-05-21T04:38:26.230Z,17.45
2023-05-21T04:40:54.055Z,15.10
2023-05-21T04:43:26.558Z,16.10
2023-05-21T04:45:55.560Z,13.77
2023-05-21T04:48:25.650Z,14.10
2023-05-21T04:50:54.090Z,11.70
2023-05-21T04:53:21.902Z,13.02
2023-05-21T04:55:49.771Z,12.43
2023-05-21T04:58:19.176Z,12.13
2023-05-21T05:00:47.345Z,12.60
2023-05-21T05:03:15.623Z,11.57
2023-05-21T05:05:44.924Z,13.27
2023-05-21T05:08:15.356Z,12.05
2023-05-21T05:10:43.723Z,10.45
2023-05-21T05:13:12.569Z,14.13
2023-05-21T05:15:40.466Z,11.82
2023-05-21T05:18:09.381Z,10.85
2023-05-21T05:20:37.189Z,12.00
2023-05-21T05:23:06.546Z,11.07
2023-05-21T05:25:34.340Z,12.82
2023-05-21T05:28:02.123Z,12.20
2023-05-21T05:30:30.387Z,9.57
2023-05-21T05:32:58.314Z,11.60
2023-05-21T05:35:26.168Z,13.57
2023-05-21T05:37:53.963Z,10.23
2023-05-21T05:40:23.098Z,11.15
2023-05-21T05:42:52.720Z,14.27
2023-05-21T05:45:20.958Z,12.70
2023-05-21T05:47:48.965Z,12.43
2023-05-21T05:50:16.896Z,11.07
2023-05-21T05:52:45.586Z,11.10
2023-05-21T05:55:13.381Z,13.00
2023-05-21T05:57:44.448Z,12.27
2023-05-21T06:00:14.652Z,12.05
2023-05-21T06:02:42.572Z,11.40
2023-05-21T06:05:11.426Z,11.38
2023-05-21T06:07:39.535Z,12.60
2023-05-21T06:10:07.828Z,10.30
2023-05-21T06:12:35.978Z,11.65
2023-05-21T06:15:06.055Z,11.40
2023-05-21T06:17:33.896Z,10.93
2023-05-21T06:20:01.857Z,11.05
2023-05-21T06:22:29.808Z,11.85
2023-05-21T06:24:57.627Z,11.10
2023-05-21T06:27:25.457Z,15.02
2023-05-21T06:29:53.212Z,11.18
2023-05-21T06:32:23.091Z,12.55
2023-05-21T06:34:51.031Z,11.38
2023-05-21T06:37:20.912Z,11.23
2023-05-21T06:39:48.890Z,12.02
2023-05-21T06:42:16.783Z,12.18
2023-05-21T06:44:45.527Z,13.40
2023-05-21T06:47:13.291Z,14.50
2023-05-21T06:49:42.301Z,12.50
2023-05-21T06:52:10.174Z,11.40
2023-05-21T06:54:38.909Z,13.23
2023-05-21T06:57:07.133Z,12.52
2023-05-21T06:59:34.971Z,10.73
2023-05-21T07:02:04.430Z,10.40
2023-05-21T07:04:35.067Z,11.38
2023-05-21T07:07:04.857Z,10.63
2023-05-21T07:09:32.826Z,11.52
2023-05-21T07:12:01.267Z,12.52
2023-05-21T07:14:29.197Z,11.05
2023-05-21T07:16:56.984Z,13.05
2023-05-21T07:19:24.839Z,12.50
2023-05-21T07:21:52.701Z,11.30
2023-05-21T07:24:22.049Z,11.98
2023-05-21T07:26:49.832Z,10.90
2023-05-21T07:29:17.618Z,14.15
2023-05-21T07:31:45.471Z,11.38
2023-05-21T07:34:13.204Z,11.50
2023-05-21T07:36:41.094Z,13.35
2023-05-21T07:39:08.874Z,9.90
2023-05-21T07:41:38.101Z,12.02
2023-05-21T07:44:06.109Z,11.48
2023-05-21T07:46:33.929Z,11.10
2023-05-21T07:49:01.832Z,10.80
2023-05-21T07:51:29.951Z,13.40
2023-05-21T07:53:57.754Z,11.70
2023-05-21T07:56:26.692Z,10.85
2023-05-21T07:58:56.951Z,9.82
2023-05-21T08:01:25.112Z,10.35
2023-05-21T08:03:53.725Z,10.95
2023-05-21T08:06:22.251Z,9.43
2023-05-21T08:08:49.956Z,10.18
2023-05-21T08:11:17.750Z,11.30
2023-05-21T08:13:45.574Z,12.52
2023-05-21T08:16:14.826Z,9.18
2023-05-21T08:18:42.813Z,11.65
2023-05-21T08:21:10.765Z,9.88
2023-05-21T08:23:38.749Z,12.63
2023-05-21T08:26:07.110Z,10.50
2023-05-21T08:28:35.636Z,11.10
2023-05-21T08:31:03.629Z,8.48
2023-05-21T08:33:32.933Z,9.52
2023-05-21T08:36:00.856Z,8.25
2023-05-21T08:38:36.449Z,8.98
2023-05-21T08:41:10.218Z,8.07
2023-05-21T08:43:38.788Z,8.45
2023-05-21T08:46:09.697Z,7.70
2023-05-21T08:48:39.544Z,9.57
2023-05-21T08:51:07.582Z,9.55
2023-05-21T08:53:35.608Z,9.23
2023-05-21T08:56:06.476Z,8.05
2023-05-21T08:58:40.279Z,9.20
2023-05-21T09:01:09.660Z,9.77
2023-05-21T09:03:42.434Z,8.98
2023-05-21T09:06:14.156Z,7.35
2023-05-21T09:08:46.054Z,8.35
2023-05-21T09:11:22.509Z,7.22
2023-05-21T09:13:53.042Z,9.05
2023-05-21T09:16:21.160Z,8.70
2023-05-21T09:18:50.616Z,9.40
2023-05-21T09:21:25.597Z,9.00
2023-05-21T09:23:57.636Z,8.68
2023-05-21T09:26:25.848Z,8.98
2023-05-21T09:28:58.636Z,8.93
2023-05-21T09:31:26.959Z,7.50
2023-05-21T09:33:56.741Z,7.80
2023-05-21T09:36:25.654Z,10.95
2023-05-21T09:38:53.596Z,8.82
2023-05-21T09:41:22.379Z,9.18
2023-05-21T09:43:50.866Z,8.13
2023-05-21T09:46:22.936Z,6.93
2023-05-21T09:48:50.850Z,7.45
2023-05-21T09:51:21.737Z,6.63
2023-05-21T09:53:57.929Z,10.25
2023-05-21T09:56:27.554Z,6.57
2023-05-21T09:58:58.039Z,10.90
2023-05-21T10:01:26.121Z,6.95
2023-05-21T10:03:57.908Z,5.82
2023-05-21T10:06:28.652Z,10.95
2023-05-21T10:08:58.244Z,8.57
2023-05-21T10:11:28.107Z,6.53
2023-05-21T10:13:59.111Z,8.00
2023-05-21T10:16:26.939Z,7.93
2023-05-21T10:18:57.621Z,5.82
2023-05-21T10:21:27.492Z,8.05
2023-05-21T10:23:57.479Z,5.65
2023-05-21T10:26:26.485Z,10.23
2023-05-21T10:28:57.267Z,9.70
2023-05-21T10:31:26.927Z,6.88
2023-05-21T10:33:55.032Z,6.97
2023-05-21T10:36:24.857Z,6.55
2023-05-21T10:38:55.024Z,8.15
2023-05-21T10:41:23.988Z,9.30
2023-05-21T10:44:03.789Z,10.20
2023-05-21T10:47:29.171Z,5.72
2023-05-21T10:50:17.618Z,8.48
2023-05-21T10:52:58.040Z,11.73
2023-05-21T10:55:39.957Z,5.50
2023-05-21T10:58:51.048Z,6.10
2023-05-21T11:01:28.439Z,5.82
2023-05-21T11:03:56.848Z,8.88
2023-05-21T11:06:27.002Z,7.55
2023-05-21T11:08:55.939Z,6.93
2023-05-21T11:11:46.080Z,6.35
2023-05-21T11:14:36.315Z,6.40
2023-05-21T11:17:05.641Z,10.85
2023-05-21T11:19:38.177Z,7.45
2023-05-21T11:22:23.263Z,7.90
2023-05-21T11:24:51.976Z,8.80
2023-05-21T11:27:39.573Z,7.93
2023-05-21T11:30:09.106Z,9.43
2023-05-21T11:32:40.970Z,10.32
2023-05-21T11:35:09.432Z,11.32
2023-05-21T11:37:40.617Z,10.43
2023-05-21T11:40:25.759Z,6.53
2023-05-21T11:42:56.126Z,7.72
2023-05-21T11:45:26.311Z,8.82
2023-05-21T11:47:54.369Z,8.13
2023-05-21T11:50:22.209Z,10.45
2023-05-21T11:52:50.906Z,6.90
2023-05-21T11:55:23.516Z,8.52
2023-05-21T11:57:56.419Z,8.48
2023-05-21T12:00:24.369Z,7.50
2023-05-21T12:02:53.662Z,5.97
2023-05-21T12:05:22.722Z,11.27
2023-05-21T12:07:51.032Z,6.18
2023-05-21T12:10:22.957Z,6.85
2023-05-21T12:12:56.237Z,7.32
2023-05-21T12:15:28.192Z,9.05
2023-05-21T12:17:56.929Z,6.35
2023-05-21T12:20:27.902Z,10.80
2023-05-21T12:22:55.960Z,9.25
2023-05-21T12:25:24.037Z,6.15
2023-05-21T12:27:57.821Z,8.32
2023-05-21T12:30:27.735Z,9.98
2023-05-21T12:32:59.321Z,9.40
2023-05-21T12:35:27.521Z,5.65
2023-05-21T12:37:55.920Z,5.97
2023-05-21T12:40:35.594Z,5.90
2023-05-21T12:43:03.592Z,6.65
2023-05-21T12:45:34.338Z,7.70
2023-05-21T12:48:03.097Z,6.68
2023-05-21T12:50:31.125Z,6.80
2023-05-21T12:52:59.596Z,6.65
2023-05-21T12:55:27.478Z,6.85
2023-05-21T12:58:04.388Z,8.05
2023-05-21T13:00:34.307Z,6.30
2023-05-21T13:03:04.613Z,8.00
2023-05-21T13:05:32.703Z,6.50
2023-05-21T13:08:00.571Z,7.57
2023-05-21T13:10:30.823Z,8.25
2023-05-21T13:12:58.602Z,6.15
2023-05-21T13:15:26.373Z,7.47
2023-05-21T13:17:57.241Z,6.95
2023-05-21T13:20:27.353Z,5.82
2023-05-21T13:22:55.780Z,6.55
2023-05-21T13:25:28.542Z,6.47
2023-05-21T13:27:57.244Z,8.07
2023-05-21T13:30:25.237Z,5.55
2023-05-21T13:32:53.231Z,6.03
2023-05-21T13:35:22.723Z,9.40
2023-05-21T13:37:50.557Z,7.53
2023-05-21T13:40:18.480Z,5.80
2023-05-21T13:42:48.328Z,6.22
2023-05-21T13:45:18.036Z,8.27
2023-05-21T13:47:48.031Z,5.70
2023-05-21T13:50:16.212Z,7.65
2023-05-21T13:52:46.058Z,6.32
2023-05-21T13:55:15.719Z,7.88
2023-05-21T13:57:47.124Z,5.78
2023-05-21T14:00:16.386Z,5.45
2023-05-21T14:02:44.580Z,8.93
2023-05-21T14:05:14.638Z,6.28
2023-05-21T14:07:42.866Z,8.27
2023-05-21T14:10:13.732Z,5.88
2023-05-21T14:12:42.141Z,8.40
2023-05-21T14:15:10.774Z,7.30
2023-05-21T14:17:40.345Z,6.45
2023-05-21T14:20:10.004Z,6.65
2023-05-21T14:22:37.892Z,6.68
2023-05-21T14:25:06.230Z,5.35
2023-05-21T14:27:37.696Z,5.20
2023-05-21T14:30:06.804Z,7.45
2023-05-21T14:32:34.712Z,6.03
2023-05-21T14:35:02.666Z,6.53
2023-05-21T14:37:30.539Z,5.85
2023-05-21T14:39:58.276Z,4.75
2023-05-21T14:42:26.038Z,4.35
2023-05-21T14:44:55.132Z,7.75
2023-05-21T14:47:23.113Z,5.97
2023-05-21T14:49:51.710Z,8.23
2023-05-21T14:52:19.660Z,7.13
2023-05-21T14:54:47.458Z,6.85
2023-05-21T14:57:15.208Z,8.20
2023-05-21T14:59:43.103Z,7.22
2023-05-21T15:02:12.615Z,6.68
2023-05-21T15:04:40.523Z,7.30
2023-05-21T15:07:08.369Z,6.28
2023-05-21T15:09:36.378Z,6.53
2023-05-21T15:12:04.364Z,6.05
2023-05-21T15:14:32.190Z,7.85
2023-05-21T15:16:59.912Z,6.75
2023-05-21T15:19:29.176Z,5.15
2023-05-21T15:21:57.008Z,5.30
2023-05-21T15:24:24.907Z,6.35
2023-05-21T15:26:52.751Z,6.20
2023-05-21T15:29:20.591Z,4.28
2023-05-21T15:31:48.494Z,6.18
2023-05-21T15:34:18.061Z,4.32
2023-05-21T15:36:47.447Z,5.85
2023-05-21T15:39:15.463Z,6.68
2023-05-21T15:41:43.299Z,7.10
2023-05-21T15:44:11.151Z,4.93
2023-05-21T15:46:39.145Z,5.88
2023-05-21T15:49:07.107Z,5.40
2023-05-21T15:51:34.982Z,8.07
2023-05-21T15:54:04.254Z,6.03
2023-05-21T15:56:32.080Z,6.80
2023-05-21T15:59:01.429Z,7.45
2023-05-21T16:01:29.437Z,6.80
2023-05-21T16:03:57.386Z,5.25
2023-05-21T16:06:25.777Z,5.45
2023-05-21T16:08:54.862Z,5.03
2023-05-21T16:11:24.210Z,5.63
2023-05-21T16:13:52.068Z,7.75
2023-05-21T16:16:20.795Z,5.20
2023-05-21T16:18:50.168Z,5.60
2023-05-21T16:21:18.054Z,4.88
2023-05-21T16:23:46.009Z,7.43
2023-05-21T16:26:14.182Z,6.78
2023-05-21T16:28:43.413Z,4.93
2023-05-21T16:31:12.603Z,5.03
2023-05-21T16:33:40.401Z,6.30
2023-05-21T16:36:08.339Z,4.82
2023-05-21T16:38:36.144Z,5.70
2023-05-21T16:41:04.005Z,8.15
2023-05-21T16:43:31.775Z,6.40
2023-05-21T16:46:01.015Z,7.38
2023-05-21T16:48:28.854Z,8.90
2023-05-21T16:50:56.734Z,4.90
2023-05-21T16:53:24.522Z,8.02
2023-05-21T16:55:52.254Z,4.30
2023-05-21T16:58:20.096Z,4.20
2023-05-21T17:00:48.003Z,6.35
2023-05-21T17:03:17.479Z,6.20
2023-05-21T17:05:45.342Z,6.25
2023-05-21T17:08:13.108Z,4.32
2023-05-21T17:10:41.711Z,5.68
2023-05-21T17:13:21.515Z,4.15
2023-05-21T17:15:51.421Z,5.60
2023-05-21T17:18:20.864Z,5.43
2023-05-21T17:20:48.676Z,4.18
2023-05-21T17:23:16.668Z,5.00
2023-05-21T17:25:44.585Z,3.78
2023-05-21T17:28:12.477Z,10.73
2023-05-21T17:30:40.404Z,5.70
2023-05-21T17:33:10.637Z,4.38
2023-05-21T17:35:40.013Z,5.85
2023-05-21T17:38:08.187Z,5.55
2023-05-21T17:40:36.160Z,4.97
2023-05-21T17:43:04.312Z,5.20
2023-05-21T17:45:32.185Z,4.57
2023-05-21T17:48:00.654Z,6.78
2023-05-21T17:50:28.729Z,4.43
2023-05-21T17:52:57.993Z,4.20
2023-05-21T17:55:25.802Z,6.00
2023-05-21T17:57:53.650Z,4.90
2023-05-21T18:00:21.945Z,4.57
2023-05-21T18:02:49.782Z,4.95
2023-05-21T18:05:17.689Z,5.22
2023-05-21T18:07:45.566Z,4.25
2023-05-21T18:10:15.418Z,8.23
2023-05-21T18:12:45.604Z,4.63
2023-05-21T18:15:14.858Z,6.65
2023-05-21T18:17:42.672Z,5.13
2023-05-21T18:20:11.502Z,6.80
2023-05-21T18:22:39.304Z,7.80
2023-05-21T18:25:08.347Z,6.47
2023-05-21T18:27:37.628Z,4.78
2023-05-21T18:30:06.881Z,5.28
2023-05-21T18:32:34.831Z,6.28
2023-05-21T18:35:02.744Z,5.25
2023-05-21T18:37:30.577Z,9.43
2023-05-21T18:39:58.367Z,5.85
2023-05-21T18:42:28.157Z,5.32
2023-05-21T18:44:57.333Z,6.45
2023-05-21T18:47:25.158Z,6.63
2023-05-21T18:49:52.907Z,6.80
2023-05-21T18:52:20.793Z,7.10
2023-05-21T18:54:48.545Z,6.05
2023-05-21T18:57:16.352Z,4.82
2023-05-21T18:59:44.161Z,5.68
2023-05-21T19:02:13.684Z,6.95
2023-05-21T19:04:41.491Z,6.18
2023-05-21T19:07:09.207Z,5.88
2023-05-21T19:09:37.064Z,5.75
2023-05-21T19:12:05.491Z,5.07
2023-05-21T19:14:33.348Z,6.93
2023-05-21T19:17:01.166Z,5.03
2023-05-21T19:19:30.482Z,5.20
2023-05-21T19:21:58.852Z,4.80
2023-05-21T19:24:26.738Z,7.25
2023-05-21T19:26:54.573Z,6.55
2023-05-21T19:29:22.697Z,6.47
2023-05-21T19:31:54.880Z,5.57
2023-05-21T19:34:22.844Z,4.97
2023-05-21T19:36:53.813Z,4.80
2023-05-21T19:39:22.000Z,6.15
2023-05-21T19:41:49.948Z,3.85
2023-05-21T19:44:18.331Z,5.95
2023-05-21T19:46:46.104Z,7.30
2023-05-21T19:49:15.754Z,7.68
2023-05-21T19:51:43.644Z,6.90
2023-05-21T19:54:12.869Z,6.80
2023-05-21T19:56:40.786Z,4.65
2023-05-21T19:59:08.694Z,6.18
2023-05-21T20:01:39.543Z,5.75
2023-05-21T20:04:08.147Z,13.07
2023-05-21T20:06:36.101Z,6.05
2023-05-21T20:09:04.254Z,4.93
2023-05-21T20:11:33.795Z,7.50
2023-05-21T20:14:02.373Z,5.82
2023-05-21T20:16:33.443Z,6.47
2023-05-21T20:19:01.877Z,6.60
2023-05-21T20:21:31.464Z,6.10
2023-05-21T20:23:59.292Z,6.57
2023-05-21T20:26:27.258Z,7.28
2023-05-21T20:28:56.549Z,4.93
2023-05-21T20:31:25.284Z,5.95
2023-05-21T20:33:53.779Z,6.53
2023-05-21T20:36:21.581Z,5.63
2023-05-21T20:38:49.402Z,7.72
2023-05-21T20:41:17.219Z,4.72
2023-05-21T20:43:46.018Z,6.32
2023-05-21T20:46:18.205Z,6.75
2023-05-21T20:48:47.452Z,7.00
2023-05-21T20:51:15.327Z,7.35
2023-05-21T20:53:43.075Z,5.45
2023-05-21T20:56:11.728Z,7.20
2023-05-21T20:58:39.969Z,6.90
2023-05-21T21:01:10.829Z,5.90
2023-05-21T21:03:41.506Z,5.53
2023-05-21T21:06:09.866Z,6.68
2023-05-21T21:08:40.214Z,6.18
2023-05-21T21:11:09.056Z,5.00
2023-05-21T21:13:37.076Z,5.82
2023-05-21T21:16:05.468Z,5.25
2023-05-21T21:18:33.339Z,4.80
2023-05-21T21:21:02.577Z,6.75
2023-05-21T21:23:30.746Z,5.80
2023-05-21T21:25:58.593Z,4.55
2023-05-21T21:28:26.440Z,6.90
2023-05-21T21:30:54.383Z,5.60
2023-05-21T21:33:24.305Z,5.68
2023-05-21T21:35:52.449Z,6.72
2023-05-21T21:38:21.670Z,6.43
2023-05-21T21:40:49.521Z,7.13
2023-05-21T21:43:17.293Z,7.25
2023-05-21T21:45:45.243Z,4.28
2023-05-21T21:48:13.125Z,7.53
2023-05-21T21:50:41.137Z,6.65
2023-05-21T21:53:09.815Z,5.53
2023-05-21T21:55:39.095Z,4.95
2023-05-21T21:58:06.985Z,9.18
2023-05-21T22:00:34.800Z,4.30
2023-05-21T22:03:02.560Z,6.43
2023-05-21T22:05:32.595Z,7.28
2023-05-21T22:08:00.469Z,6.82
2023-05-21T22:10:28.256Z,5.25
2023-05-21T22:12:57.443Z,7.32
2023-05-21T22:15:28.428Z,7.95
2023-05-21T22:17:56.423Z,5.82
2023-05-21T22:20:25.985Z,5.45
2023-05-21T22:22:55.323Z,6.32
2023-05-21T22:25:23.338Z,7.53
2023-05-21T22:27:51.822Z,6.05
2023-05-21T22:30:21.430Z,5.30
2023-05-21T22:32:49.538Z,6.57
2023-05-21T22:35:17.413Z,7.88
2023-05-21T22:37:45.421Z,7.43
2023-05-21T22:40:13.583Z,5.75
2023-05-21T22:42:41.800Z,7.50
2023-05-21T22:45:11.006Z,6.20
2023-05-21T22:47:40.472Z,5.68
2023-05-21T22:50:10.104Z,5.40
2023-05-21T22:52:38.281Z,7.40
2023-05-21T22:55:06.653Z,7.00
2023-05-21T22:57:34.676Z,7.88
2023-05-21T23:00:02.473Z,7.60
2023-05-21T23:02:30.376Z,6.88
2023-05-21T23:04:59.687Z,6.80
2023-05-21T23:07:27.661Z,5.45
2023-05-21T23:09:55.479Z,6.65
2023-05-21T23:12:23.305Z,4.68
2023-05-21T23:14:51.115Z,4.80
2023-05-21T23:17:19.030Z,7.80
2023-05-21T23:19:49.908Z,5.97
2023-05-21T23:22:20.152Z,5.35
2023-05-21T23:24:48.581Z,6.28
2023-05-21T23:27:16.541Z,5.60
2023-05-21T23:29:44.343Z,5.20
2023-05-21T23:32:12.504Z,5.78
2023-05-21T23:34:40.357Z,5.20
2023-05-21T23:37:08.093Z,5.72
2023-05-21T23:39:37.508Z,5.47
2023-05-21T23:42:06.035Z,6.00
2023-05-21T23:44:33.826Z,7.05
2023-05-21T23:47:01.694Z,6.40
2023-05-21T23:49:29.590Z,5.22
2023-05-21T23:51:57.621Z,5.45
2023-05-21T23:54:25.523Z,5.07
2023-05-21T23:56:54.621Z,5.78
2023-05-21T23:59:22.432Z,7.57
